createdAt,value
2023-04-26T00:00:35.617Z,64.80
2023-04-26T00:03:04.955Z,65.30
2023-04-26T00:05:34.258Z,65.20
2023-04-26T00:08:03.413Z,65.30
2023-04-26T00:10:32.616Z,65.80
2023-04-26T00:13:01.922Z,65.30
2023-04-26T00:15:30.920Z,65.70
2023-04-26T00:17:59.806Z,65.20
2023-04-26T00:20:29.112Z,65.40
2023-04-26T00:22:58.205Z,65.90
2023-04-26T00:25:27.411Z,65.80
2023-04-26T00:27:56.593Z,65.60
2023-04-26T00:30:25.788Z,65.50
2023-04-26T00:32:54.915Z,65.50
2023-04-26T00:35:24.201Z,65.50
2023-04-26T00:37:53.651Z,65.80
2023-04-26T00:40:22.783Z,65.60
2023-04-26T00:42:51.880Z,65.70
2023-04-26T00:45:21.088Z,65.70
2023-04-26T00:47:50.939Z,65.90
2023-04-26T00:50:20.200Z,65.40
2023-04-26T00:52:49.190Z,65.40
2023-04-26T00:55:18.176Z,66.10
2023-04-26T00:57:47.383Z,65.60
2023-04-26T01:00:16.682Z,65.60
2023-04-26T01:02:46.514Z,65.80
2023-04-26T01:05:15.998Z,65.70
2023-04-26T01:07:45.703Z,65.70
2023-04-26T01:10:14.809Z,66.00
2023-04-26T01:12:44.120Z,65.90
2023-04-26T01:15:13.312Z,65.60
2023-04-26T01:17:43.041Z,65.60
2023-04-26T01:20:13.669Z,65.50
2023-04-26T01:22:42.940Z,65.50
2023-04-26T01:25:12.248Z,66.30
2023-04-26T01:27:41.443Z,66.00
2023-04-26T01:30:10.750Z,65.50
2023-04-26T01:32:40.109Z,65.50
2023-04-26T01:35:09.757Z,65.60
2023-04-26T01:37:39.051Z,65.80
2023-04-26T01:40:08.253Z,65.80
2023-04-26T01:42:38.511Z,65.90
2023-04-26T01:45:07.676Z,66.10
2023-04-26T13:05:30.009Z,68.40
2023-04-26T13:07:59.195Z,69.00
2023-04-26T13:10:28.401Z,68.30
2023-04-26T13:12:57.805Z,67.70
2023-04-26T13:15:27.212Z,66.90
2023-04-26T13:17:56.553Z,66.40
2023-04-26T13:20:26.765Z,65.80
2023-04-26T13:22:56.342Z,65.40
2023-04-26T13:25:25.636Z,64.90
2023-04-26T13:27:54.945Z,64.50
2023-04-26T13:30:24.448Z,64.30
2023-04-26T13:32:53.970Z,64.20
2023-04-26T13:35:23.464Z,64.00
2023-04-26T13:37:52.860Z,63.80
2023-04-26T13:40:24.615Z,63.70
2023-04-26T13:42:54.012Z,63.60
2023-04-26T13:45:23.217Z,64.50
2023-04-26T13:47:52.919Z,62.60
2023-04-26T13:50:22.139Z,62.00
2023-04-26T13:52:51.529Z,60.40
2023-04-26T13:55:20.836Z,60.40
2023-04-26T13:57:50.261Z,59.90
2023-04-26T14:00:19.841Z,59.60
2023-04-26T14:02:49.441Z,59.50
2023-04-26T14:05:19.007Z,60.00
2023-04-26T14:07:48.570Z,59.70
2023-04-26T14:10:17.762Z,60.00
2023-04-26T14:12:47.682Z,60.10
2023-04-26T14:15:16.884Z,60.00
2023-04-26T14:17:46.234Z,59.80
2023-04-26T14:20:15.571Z,59.70
2023-04-26T14:22:44.870Z,59.70
2023-04-26T14:25:14.070Z,59.60
2023-04-26T14:27:43.308Z,59.60
2023-04-26T14:30:12.680Z,59.80
2023-04-26T14:32:41.964Z,59.70
2023-04-26T14:35:11.382Z,60.70
2023-04-26T14:37:40.728Z,61.30
2023-04-26T14:40:10.083Z,61.50
2023-04-26T14:42:39.172Z,62.80
2023-04-26T14:45:08.684Z,62.30
2023-04-26T14:47:39.449Z,62.70
2023-04-26T14:50:08.401Z,61.60
2023-04-26T14:52:37.808Z,61.50
2023-04-26T14:55:07.211Z,61.30
2023-04-26T14:57:38.303Z,61.00
2023-04-26T15:00:06.878Z,61.00
2023-04-26T15:02:36.342Z,60.80
2023-04-26T15:05:05.765Z,61.20
2023-04-26T15:07:34.947Z,61.90
2023-04-26T15:10:04.305Z,61.60
2023-04-26T15:12:33.209Z,61.90
2023-04-26T15:15:02.233Z,62.50
2023-04-26T15:17:31.648Z,62.50
2023-04-26T15:20:01.051Z,63.10
2023-04-26T15:22:30.129Z,63.60
2023-04-26T15:24:59.357Z,63.50
2023-04-26T15:27:28.634Z,63.20
2023-04-26T15:29:57.722Z,62.50
2023-04-26T15:32:27.049Z,62.10
2023-04-26T15:34:56.328Z,62.10
2023-04-26T15:37:25.419Z,61.80
2023-04-26T15:39:54.513Z,61.70
2023-04-26T15:42:23.819Z,61.50
2023-04-26T15:44:54.664Z,61.40
2023-04-26T15:47:23.875Z,61.50
2023-04-26T15:49:53.150Z,61.50
2023-04-26T15:52:22.454Z,61.70
2023-04-26T15:54:51.763Z,62.10
2023-04-26T15:57:20.846Z,61.50
2023-04-26T15:59:49.947Z,61.60
2023-04-26T16:02:19.460Z,61.60
2023-04-26T16:04:48.883Z,61.50
2023-04-26T16:07:18.263Z,61.50
2023-04-26T16:09:47.773Z,61.50
2023-04-26T16:12:16.855Z,61.30
2023-04-26T16:14:45.866Z,61.60
2023-04-26T16:17:15.264Z,61.50
2023-04-26T16:19:44.559Z,61.60
2023-04-26T16:22:13.751Z,61.60
2023-04-26T16:24:42.960Z,61.60
2023-04-26T16:27:12.148Z,61.60
2023-04-26T16:29:41.245Z,61.40
2023-04-26T16:32:10.451Z,61.40
2023-04-26T16:34:39.646Z,61.40
2023-04-26T16:37:08.530Z,61.60
2023-04-26T16:39:37.525Z,61.50
2023-04-26T16:42:07.040Z,61.80
2023-04-26T16:44:36.228Z,61.80
2023-04-26T16:47:05.549Z,61.80
2023-04-26T16:49:34.842Z,61.90
2023-04-26T16:52:03.885Z,62.10
2023-04-26T16:54:33.127Z,62.30
2023-04-26T16:57:02.436Z,62.10
2023-04-26T16:59:31.738Z,62.00
2023-04-26T17:02:01.314Z,61.90
2023-04-26T17:04:30.736Z,61.90
2023-04-26T17:07:00.184Z,61.90
2023-04-26T17:09:29.452Z,61.90
2023-04-26T17:11:58.549Z,61.70
2023-04-26T17:14:27.631Z,61.60
2023-04-26T17:16:57.215Z,61.80
2023-04-26T17:19:26.334Z,61.60
2023-04-26T17:21:55.339Z,61.80
2023-04-26T17:24:24.527Z,61.70
2023-04-26T17:26:53.721Z,62.10
2023-04-26T17:29:22.917Z,62.00
2023-04-26T17:31:52.190Z,62.60
2023-04-26T17:34:21.523Z,62.70
2023-04-26T17:36:50.822Z,62.70
2023-04-26T17:39:19.917Z,62.80
2023-04-26T17:41:49.223Z,63.00
2023-04-26T17:44:18.293Z,62.80
2023-04-26T17:46:47.517Z,63.00
2023-04-26T17:49:16.611Z,63.10
2023-04-26T17:51:45.495Z,63.10
2023-04-26T17:54:14.614Z,63.00
2023-04-26T17:56:44.104Z,63.10
2023-04-26T17:59:13.612Z,63.20
2023-04-26T18:01:42.630Z,63.30
2023-04-26T18:04:12.159Z,63.60
2023-04-26T18:06:41.277Z,64.20
2023-04-26T18:09:10.408Z,63.70
2023-04-26T18:11:41.864Z,63.80
2023-04-26T18:14:10.014Z,63.60
2023-04-26T18:16:39.164Z,63.40
2023-04-26T18:19:08.311Z,63.30
2023-04-26T18:21:37.544Z,63.40
2023-04-26T18:24:06.509Z,63.40
2023-04-26T18:26:35.398Z,63.30
2023-04-26T18:29:04.394Z,63.20
2023-04-26T18:31:33.523Z,63.80
2023-04-26T18:34:02.577Z,63.20
2023-04-26T18:36:31.790Z,63.20
2023-04-26T18:39:01.242Z,63.30
2023-04-26T18:41:30.290Z,63.20
2023-04-26T18:43:59.171Z,63.20
2023-04-26T18:46:28.083Z,63.20
2023-04-26T18:48:56.951Z,63.30
2023-04-26T18:51:26.160Z,63.20
2023-04-26T18:53:55.057Z,63.20
2023-04-26T18:56:24.136Z,63.70
2023-04-26T18:58:53.026Z,64.30
2023-04-26T19:01:21.936Z,65.20
2023-04-26T19:03:51.125Z,65.50
2023-04-26T19:06:20.316Z,65.70
2023-04-26T19:08:49.437Z,65.80
2023-04-26T19:11:18.510Z,66.00
2023-04-26T19:13:47.395Z,66.20
2023-04-26T19:16:16.451Z,66.30
2023-04-26T19:18:45.804Z,66.40
2023-04-26T19:21:14.681Z,66.40
2023-04-26T19:23:45.372Z,66.40
2023-04-26T19:26:14.115Z,66.50
2023-04-26T19:28:42.994Z,66.30
2023-04-26T19:31:12.147Z,66.50
2023-04-26T19:33:41.304Z,66.70
2023-04-26T19:36:10.508Z,66.60
2023-04-26T19:38:39.583Z,66.70
2023-04-26T19:41:08.619Z,66.70
2023-04-26T19:43:37.754Z,66.70
2023-04-26T19:46:06.669Z,67.40
2023-04-26T19:48:35.561Z,66.90
2023-04-26T19:51:04.455Z,66.90
2023-04-26T19:53:33.552Z,66.90
2023-04-26T19:56:02.438Z,67.00
2023-04-26T19:58:31.334Z,67.00
2023-04-26T20:01:00.471Z,67.00
2023-04-26T20:03:29.769Z,67.50
2023-04-26T20:05:58.927Z,67.80
2023-04-26T20:08:28.770Z,67.90
2023-04-26T20:10:58.342Z,67.90
2023-04-26T20:13:27.231Z,68.00
2023-04-26T20:15:56.324Z,68.00
2023-04-26T20:18:25.335Z,68.00
2023-04-26T20:20:54.215Z,68.20
2023-04-26T20:23:23.119Z,68.20
2023-04-26T20:25:52.195Z,68.30
2023-04-26T20:28:21.201Z,68.20
2023-04-26T20:30:50.291Z,68.30
2023-04-26T20:33:19.184Z,68.40
2023-04-26T20:35:48.169Z,68.50
2023-04-26T20:38:17.162Z,68.60
2023-04-26T20:40:46.470Z,68.50
2023-04-26T20:43:15.350Z,68.50
2023-04-26T20:45:44.367Z,68.40
2023-04-26T20:48:13.553Z,68.50
2023-04-26T20:50:42.540Z,68.60
2023-04-26T20:53:11.429Z,68.60
2023-04-26T20:55:40.532Z,69.20
2023-04-26T20:58:09.631Z,68.70
2023-04-26T21:00:38.526Z,68.70
2023-04-26T21:03:07.591Z,68.60
2023-04-26T21:05:36.819Z,68.70
2023-04-26T21:08:06.232Z,68.70
2023-04-26T21:10:35.081Z,68.90
2023-04-26T21:13:04.211Z,69.40
2023-04-26T21:15:33.407Z,68.90
2023-04-26T21:18:02.611Z,69.80
2023-04-26T21:20:31.590Z,69.10
2023-04-26T21:23:00.800Z,69.10
2023-04-26T21:25:29.890Z,69.10
2023-04-26T21:27:58.980Z,68.10
2023-04-26T21:30:27.895Z,67.00
2023-04-26T21:32:56.792Z,66.50
2023-04-26T21:35:25.754Z,65.70
2023-04-26T21:37:54.756Z,65.00
2023-04-26T21:40:23.859Z,64.50
2023-04-26T21:43:04.028Z,64.30
2023-04-26T21:45:23.385Z,63.80
2023-04-26T21:47:52.473Z,63.70
2023-04-26T21:50:21.329Z,63.50
2023-04-26T21:52:50.244Z,63.60
2023-04-26T21:55:19.253Z,63.50
2023-04-26T21:57:48.546Z,63.40
2023-04-26T22:00:17.507Z,63.50
2023-04-26T22:02:48.016Z,62.90
2023-04-26T22:05:17.133Z,62.60
2023-04-26T22:07:45.948Z,62.50
2023-04-26T22:10:14.842Z,62.30
2023-04-26T22:12:43.937Z,62.20
2023-04-26T22:15:12.821Z,62.20
2023-04-26T22:17:41.968Z,62.10
2023-04-26T22:20:11.359Z,63.00
2023-04-26T22:22:40.326Z,62.40
2023-04-26T22:25:09.204Z,62.70
2023-04-26T22:27:38.299Z,62.70
2023-04-26T22:30:22.940Z,62.60
2023-04-26T22:32:37.930Z,63.30
2023-04-26T22:35:06.927Z,62.70
2023-04-26T22:37:35.910Z,63.10
2023-04-26T22:40:04.911Z,62.50
2023-04-26T22:42:33.791Z,63.90
2023-04-26T22:45:05.556Z,64.20
2023-04-26T22:47:34.684Z,64.50
2023-04-26T22:50:03.950Z,64.80
2023-04-26T22:52:33.038Z,65.10
2023-04-26T22:55:02.145Z,65.20
2023-04-26T22:57:31.121Z,65.70
2023-04-26T23:00:00.229Z,66.20
2023-04-26T23:02:29.353Z,65.10
2023-04-26T23:04:58.576Z,66.20
2023-04-26T23:07:27.527Z,66.00
2023-04-26T23:09:56.767Z,66.30
2023-04-26T23:12:26.136Z,66.20
2023-04-26T23:14:55.222Z,65.50
2023-04-26T23:17:24.245Z,65.50
2023-04-26T23:19:53.112Z,65.60
2023-04-26T23:22:22.202Z,65.90
2023-04-26T23:24:51.204Z,64.90
2023-04-26T23:27:20.487Z,65.10
2023-04-26T23:29:49.591Z,65.00
2023-04-26T23:32:18.591Z,64.70
2023-04-26T23:34:47.560Z,65.10
2023-04-26T23:37:16.680Z,64.90
2023-04-26T23:39:45.661Z,65.00
2023-04-26T23:42:14.966Z,64.80
2023-04-26T23:44:44.374Z,65.40
2023-04-26T23:47:13.680Z,64.90
2023-04-26T23:49:42.868Z,64.80
2023-04-26T23:52:23.559Z,65.30
2023-04-26T23:54:48.336Z,64.80
2023-04-26T23:57:26.673Z,64.70
